sensor_id;sensor_type;location;lat;lon;timestamp;pressure;altitude;pressure_sealevel;temperature;humidity
75972;BME280;64651;47.540;19.088;2023-06-22T00:02:15;100630.69;;;20.97;100.00
75972;BME280;64651;47.540;19.088;2023-06-22T00:07:17;100626.41;;;20.79;100.00
75972;BME280;64651;47.540;19.088;2023-06-22T00:12:20;100633.56;;;20.67;100.00
75972;BME280;64651;47.540;19.088;2023-06-22T00:17:22;100645.66;;;20.59;100.00
75972;BME280;64651;47.540;19.088;2023-06-22T00:22:24;100661.13;;;20.57;100.00
75972;BME280;64651;47.540;19.088;2023-06-22T00:27:31;100648.16;;;20.52;100.00
75972;BME280;64651;47.540;19.088;2023-06-22T00:32:33;100647.41;;;20.43;100.00
75972;BME280;64651;47.540;19.088;2023-06-22T00:37:36;100634.84;;;20.49;100.00
75972;BME280;64651;47.540;19.088;2023-06-22T00:42:40;100625.44;;;20.33;100.00
75972;BME280;64651;47.540;19.088;2023-06-22T00:47:43;100636.38;;;20.47;100.00
75972;BME280;64651;47.540;19.088;2023-06-22T00:52:57;100636.22;;;20.43;100.00
75972;BME280;64651;47.540;19.088;2023-06-22T00:58:00;100639.38;;;20.42;100.00
75972;BME280;64651;47.540;19.088;2023-06-22T01:03:03;100628.03;;;20.38;100.00
75972;BME280;64651;47.540;19.088;2023-06-22T01:18:42;100641.63;;;20.48;100.00
75972;BME280;64651;47.540;19.088;2023-06-22T01:29:10;100637.59;;;20.58;100.00
75972;BME280;64651;47.540;19.088;2023-06-22T01:34:17;100647.69;;;20.50;100.00
75972;BME280;64651;47.540;19.088;2023-06-22T01:39:21;100641.63;;;20.48;100.00
75972;BME280;64651;47.540;19.088;2023-06-22T01:44:24;100642.78;;;20.47;100.00
75972;BME280;64651;47.540;19.088;2023-06-22T01:49:27;100635.06;;;20.44;100.00
75972;BME280;64651;47.540;19.088;2023-06-22T01:54:30;100641.81;;;20.43;100.00
75972;BME280;64651;47.540;19.088;2023-06-22T02:04:46;100646.31;;;20.56;100.00
75972;BME280;64651;47.540;19.088;2023-06-22T02:09:51;100650.75;;;20.57;100.00
75972;BME280;64651;47.540;19.088;2023-06-22T02:14:55;100652.41;;;20.58;100.00
75972;BME280;64651;47.540;19.088;2023-06-22T02:19:57;100650.53;;;20.62;100.00
75972;BME280;64651;47.540;19.088;2023-06-22T02:25:00;100668.56;;;20.53;100.00
75972;BME280;64651;47.540;19.088;2023-06-22T02:30:02;100665.16;;;20.47;100.00
75972;BME280;64651;47.540;19.088;2023-06-22T02:35:05;100662.81;;;20.49;100.00
75972;BME280;64651;47.540;19.088;2023-06-22T02:40:10;100656.75;;;20.47;100.00
75972;BME280;64651;47.540;19.088;2023-06-22T02:45:12;100668.81;;;20.39;100.00
75972;BME280;64651;47.540;19.088;2023-06-22T02:50:15;100681.37;;;20.24;100.00
75972;BME280;64651;47.540;19.088;2023-06-22T02:55:17;100674.56;;;20.05;100.00
75972;BME280;64651;47.540;19.088;2023-06-22T03:00:20;100690.22;;;19.97;100.00
75972;BME280;64651;47.540;19.088;2023-06-22T03:05:23;100683.66;;;19.93;100.00
75972;BME280;64651;47.540;19.088;2023-06-22T03:10:26;100680.59;;;19.77;100.00
75972;BME280;64651;47.540;19.088;2023-06-22T03:15:29;100681.72;;;19.85;100.00
75972;BME280;64651;47.540;19.088;2023-06-22T03:20:31;100685.84;;;19.79;100.00
75972;BME280;64651;47.540;19.088;2023-06-22T03:25:35;100687.13;;;19.90;100.00
75972;BME280;64651;47.540;19.088;2023-06-22T03:30:38;100685.31;;;19.94;100.00
75972;BME280;64651;47.540;19.088;2023-06-22T03:35:40;100680.19;;;19.96;100.00
75972;BME280;64651;47.540;19.088;2023-06-22T03:40:42;100673.12;;;19.99;100.00
75972;BME280;64651;47.540;19.088;2023-06-22T03:45:45;100677.19;;;20.01;100.00
75972;BME280;64651;47.540;19.088;2023-06-22T03:50:47;100674.97;;;20.24;100.00
75972;BME280;64651;47.540;19.088;2023-06-22T03:55:53;100691.72;;;20.24;100.00
75972;BME280;64651;47.540;19.088;2023-06-22T04:00:56;100681.63;;;20.32;100.00
75972;BME280;64651;47.540;19.088;2023-06-22T04:05:58;100688.16;;;20.44;100.00
75972;BME280;64651;47.540;19.088;2023-06-22T04:11:00;100692.19;;;20.55;100.00
75972;BME280;64651;47.540;19.088;2023-06-22T04:16:03;100706.38;;;20.50;100.00
75972;BME280;64651;47.540;19.088;2023-06-22T04:21:06;100702.22;;;20.56;100.00
75972;BME280;64651;47.540;19.088;2023-06-22T04:26:08;100689.03;;;20.65;100.00
75972;BME280;64651;47.540;19.088;2023-06-22T04:31:11;100711.81;;;20.97;100.00
75972;BME280;64651;47.540;19.088;2023-06-22T04:36:14;100708.03;;;21.14;100.00
75972;BME280;64651;47.540;19.088;2023-06-22T04:41:16;100710.81;;;21.22;100.00
75972;BME280;64651;47.540;19.088;2023-06-22T04:46:26;100696.66;;;21.19;100.00
75972;BME280;64651;47.540;19.088;2023-06-22T04:51:28;100720.28;;;21.09;100.00
75972;BME280;64651;47.540;19.088;2023-06-22T04:56:33;100710.44;;;21.24;100.00
75972;BME280;64651;47.540;19.088;2023-06-22T05:01:35;100711.25;;;21.24;100.00
75972;BME280;64651;47.540;19.088;2023-06-22T05:06:37;100716.13;;;21.48;100.00
75972;BME280;64651;47.540;19.088;2023-06-22T05:11:41;100721.47;;;21.74;100.00
75972;BME280;64651;47.540;19.088;2023-06-22T05:16:45;100730.78;;;21.78;100.00
75972;BME280;64651;47.540;19.088;2023-06-22T05:21:47;100732.06;;;22.13;100.00
75972;BME280;64651;47.540;19.088;2023-06-22T05:26:49;100736.06;;;22.37;100.00
75972;BME280;64651;47.540;19.088;2023-06-22T05:31:52;100739.44;;;22.42;100.00
75972;BME280;64651;47.540;19.088;2023-06-22T05:36:54;100755.69;;;22.49;100.00
75972;BME280;64651;47.540;19.088;2023-06-22T05:41:56;100754.94;;;22.64;100.00
75972;BME280;64651;47.540;19.088;2023-06-22T05:46:59;100766.75;;;22.45;100.00
75972;BME280;64651;47.540;19.088;2023-06-22T05:52:02;100772.75;;;22.44;100.00
75972;BME280;64651;47.540;19.088;2023-06-22T05:57:04;100771.09;;;22.55;100.00
75972;BME280;64651;47.540;19.088;2023-06-22T06:02:06;100769.94;;;22.68;100.00
75972;BME280;64651;47.540;19.088;2023-06-22T06:07:09;100774.50;;;22.73;100.00
75972;BME280;64651;47.540;19.088;2023-06-22T06:12:11;100772.84;;;22.96;100.00
75972;BME280;64651;47.540;19.088;2023-06-22T06:17:13;100771.63;;;23.09;100.00
75972;BME280;64651;47.540;19.088;2023-06-22T06:22:16;100774.12;;;23.38;100.00
75972;BME280;64651;47.540;19.088;2023-06-22T06:27:18;100767.97;;;23.61;100.00
75972;BME280;64651;47.540;19.088;2023-06-22T06:32:20;100759.03;;;23.86;92.65
75972;BME280;64651;47.540;19.088;2023-06-22T06:37:23;100755.59;;;24.21;100.00
75972;BME280;64651;47.540;19.088;2023-06-22T06:42:25;100756.00;;;24.54;100.00
75972;BME280;64651;47.540;19.088;2023-06-22T06:47:28;100752.06;;;24.75;99.50
75972;BME280;64651;47.540;19.088;2023-06-22T06:52:36;100762.22;;;24.79;83.59
75972;BME280;64651;47.540;19.088;2023-06-22T06:57:41;100759.00;;;25.12;80.98
75972;BME280;64651;47.540;19.088;2023-06-22T07:02:47;100754.63;;;25.34;96.30
75972;BME280;64651;47.540;19.088;2023-06-22T07:07:50;100752.69;;;25.19;90.83
75972;BME280;64651;47.540;19.088;2023-06-22T07:12:53;100751.03;;;25.56;96.14
75972;BME280;64651;47.540;19.088;2023-06-22T07:17:55;100748.53;;;25.70;74.00
75972;BME280;64651;47.540;19.088;2023-06-22T07:22:57;100745.00;;;25.96;77.43
75972;BME280;64651;47.540;19.088;2023-06-22T07:28:05;100747.19;;;26.06;82.67
75972;BME280;64651;47.540;19.088;2023-06-22T07:33:08;100744.59;;;26.40;82.79
75972;BME280;64651;47.540;19.088;2023-06-22T07:38:11;100747.94;;;26.49;78.78
75972;BME280;64651;47.540;19.088;2023-06-22T07:43:13;100746.66;;;26.69;69.65
75972;BME280;64651;47.540;19.088;2023-06-22T07:48:15;100747.75;;;27.14;70.39
75972;BME280;64651;47.540;19.088;2023-06-22T07:53:17;100741.53;;;27.34;66.35
75972;BME280;64651;47.540;19.088;2023-06-22T07:58:20;100742.28;;;27.61;58.90
75972;BME280;64651;47.540;19.088;2023-06-22T08:03:22;100737.47;;;27.65;53.23
75972;BME280;64651;47.540;19.088;2023-06-22T08:08:25;100730.50;;;28.84;50.96
75972;BME280;64651;47.540;19.088;2023-06-22T08:13:27;100707.44;;;30.22;49.07
75972;BME280;64651;47.540;19.088;2023-06-22T08:18:29;100718.69;;;31.21;46.45
75972;BME280;64651;47.540;19.088;2023-06-22T08:23:32;100717.25;;;32.27;43.86
75972;BME280;64651;47.540;19.088;2023-06-22T08:28:34;100707.63;;;32.96;41.20
75972;BME280;64651;47.540;19.088;2023-06-22T08:33:36;100703.28;;;33.83;38.04
75972;BME280;64651;47.540;19.088;2023-06-22T08:38:41;100695.97;;;34.32;36.26
75972;BME280;64651;47.540;19.088;2023-06-22T08:43:44;100691.81;;;33.25;37.22
75972;BME280;64651;47.540;19.088;2023-06-22T08:48:47;100696.91;;;33.68;38.81
75972;BME280;64651;47.540;19.088;2023-06-22T08:53:49;100694.78;;;34.29;35.52
75972;BME280;64651;47.540;19.088;2023-06-22T08:58:52;100687.75;;;35.20;34.13
75972;BME280;64651;47.540;19.088;2023-06-22T09:03:54;100677.53;;;34.79;33.91
75972;BME280;64651;47.540;19.088;2023-06-22T09:08:58;100673.97;;;35.70;33.88
75972;BME280;64651;47.540;19.088;2023-06-22T09:14:03;100672.50;;;34.64;34.70
75972;BME280;64651;47.540;19.088;2023-06-22T09:19:05;100664.78;;;35.43;34.47
75972;BME280;64651;47.540;19.088;2023-06-22T09:24:08;100655.75;;;36.29;32.53
75972;BME280;64651;47.540;19.088;2023-06-22T09:29:10;100652.22;;;37.12;31.16
75972;BME280;64651;47.540;19.088;2023-06-22T09:34:12;100650.87;;;36.42;31.48
75972;BME280;64651;47.540;19.088;2023-06-22T09:39:15;100636.78;;;38.10;29.56
75972;BME280;64651;47.540;19.088;2023-06-22T09:44:17;100630.41;;;38.28;29.39
75972;BME280;64651;47.540;19.088;2023-06-22T09:49:19;100635.53;;;39.02;27.95
75972;BME280;64651;47.540;19.088;2023-06-22T09:54:42;100630.47;;;37.90;29.69
75972;BME280;64651;47.540;19.088;2023-06-22T09:59:44;100634.25;;;38.60;28.85
75972;BME280;64651;47.540;19.088;2023-06-22T10:04:48;100623.72;;;38.87;28.48
75972;BME280;64651;47.540;19.088;2023-06-22T10:09:51;100620.84;;;38.31;29.00
75972;BME280;64651;47.540;19.088;2023-06-22T10:14:54;100621.53;;;37.63;30.04
75972;BME280;64651;47.540;19.088;2023-06-22T10:19:56;100625.81;;;38.87;28.25
75972;BME280;64651;47.540;19.088;2023-06-22T10:24:59;100623.41;;;40.09;26.61
75972;BME280;64651;47.540;19.088;2023-06-22T10:30:01;100614.59;;;40.12;26.17
75972;BME280;64651;47.540;19.088;2023-06-22T10:35:05;100599.44;;;40.30;26.56
75972;BME280;64651;47.540;19.088;2023-06-22T10:40:08;100612.94;;;39.44;27.09
75972;BME280;64651;47.540;19.088;2023-06-22T10:45:11;100604.84;;;38.86;27.88
75972;BME280;64651;47.540;19.088;2023-06-22T10:50:14;100604.75;;;39.43;27.32
75972;BME280;64651;47.540;19.088;2023-06-22T10:55:17;100591.88;;;40.33;26.06
75972;BME280;64651;47.540;19.088;2023-06-22T11:00:19;100577.75;;;40.99;25.92
75972;BME280;64651;47.540;19.088;2023-06-22T11:05:21;100583.03;;;40.09;26.72
75972;BME280;64651;47.540;19.088;2023-06-22T11:10:24;100585.25;;;41.14;24.72
75972;BME280;64651;47.540;19.088;2023-06-22T11:15:26;100589.47;;;41.46;24.92
75972;BME280;64651;47.540;19.088;2023-06-22T11:20:28;100574.44;;;41.99;24.71
75972;BME280;64651;47.540;19.088;2023-06-22T11:25:31;100570.22;;;41.76;23.73
75972;BME280;64651;47.540;19.088;2023-06-22T11:30:33;100566.44;;;42.56;23.44
75972;BME280;64651;47.540;19.088;2023-06-22T11:35:36;100552.09;;;43.06;22.99
75972;BME280;64651;47.540;19.088;2023-06-22T11:40:41;100552.34;;;43.52;22.70
75972;BME280;64651;47.540;19.088;2023-06-22T11:45:46;100556.84;;;42.65;23.45
75972;BME280;64651;47.540;19.088;2023-06-22T11:50:48;100544.44;;;42.35;23.60
75972;BME280;64651;47.540;19.088;2023-06-22T11:55:51;100545.06;;;40.10;26.25
75972;BME280;64651;47.540;19.088;2023-06-22T12:00:54;100537.97;;;40.93;25.69
75972;BME280;64651;47.540;19.088;2023-06-22T12:05:57;100546.06;;;39.18;26.70
75972;BME280;64651;47.540;19.088;2023-06-22T12:11:00;100538.13;;;38.48;28.42
75972;BME280;64651;47.540;19.088;2023-06-22T12:16:03;100526.16;;;39.02;27.65
75972;BME280;64651;47.540;19.088;2023-06-22T12:21:05;100530.66;;;37.31;30.01
75972;BME280;64651;47.540;19.088;2023-06-22T12:26:07;100522.88;;;37.57;29.28
75972;BME280;64651;47.540;19.088;2023-06-22T12:31:09;100495.41;;;41.12;25.68
75972;BME280;64651;47.540;19.088;2023-06-22T12:36:12;100493.72;;;42.25;24.50
75972;BME280;64651;47.540;19.088;2023-06-22T12:41:14;100490.59;;;43.11;23.19
75972;BME280;64651;47.540;19.088;2023-06-22T12:46:17;100483.94;;;44.21;22.17
75972;BME280;64651;47.540;19.088;2023-06-22T12:51:22;100492.91;;;43.97;22.45
75972;BME280;64651;47.540;19.088;2023-06-22T12:56:25;100476.72;;;44.88;21.59
75972;BME280;64651;47.540;19.088;2023-06-22T13:01:27;100471.94;;;45.16;21.00
75972;BME280;64651;47.540;19.088;2023-06-22T13:06:33;100475.00;;;39.46;27.63
75972;BME280;64651;47.540;19.088;2023-06-22T13:11:35;100485.59;;;37.66;29.88
75972;BME280;64651;47.540;19.088;2023-06-22T13:16:38;100469.59;;;40.39;25.82
75972;BME280;64651;47.540;19.088;2023-06-22T13:21:40;100455.59;;;42.11;24.47
75972;BME280;64651;47.540;19.088;2023-06-22T13:26:45;100444.31;;;43.16;24.46
75972;BME280;64651;47.540;19.088;2023-06-22T13:31:48;100446.09;;;43.28;24.26
75972;BME280;64651;47.540;19.088;2023-06-22T13:36:50;100436.50;;;40.77;25.97
75972;BME280;64651;47.540;19.088;2023-06-22T13:41:53;100435.22;;;40.78;25.96
75972;BME280;64651;47.540;19.088;2023-06-22T13:47:03;100441.81;;;39.32;27.58
75972;BME280;64651;47.540;19.088;2023-06-22T13:52:13;100430.00;;;40.49;26.09
75972;BME280;64651;47.540;19.088;2023-06-22T13:57:16;100430.63;;;41.04;25.93
75972;BME280;64651;47.540;19.088;2023-06-22T14:02:21;100423.84;;;41.16;25.03
75972;BME280;64651;47.540;19.088;2023-06-22T14:07:27;100423.41;;;41.32;24.76
75972;BME280;64651;47.540;19.088;2023-06-22T14:12:37;100406.75;;;42.14;24.08
75972;BME280;64651;47.540;19.088;2023-06-22T14:17:43;100413.75;;;42.51;23.97
75972;BME280;64651;47.540;19.088;2023-06-22T14:22:50;100405.41;;;40.63;25.77
75972;BME280;64651;47.540;19.088;2023-06-22T14:27:56;100393.78;;;40.90;26.11
75972;BME280;64651;47.540;19.088;2023-06-22T14:32:58;100396.41;;;40.28;25.94
75972;BME280;64651;47.540;19.088;2023-06-22T14:38:00;100388.94;;;40.96;25.53
75972;BME280;64651;47.540;19.088;2023-06-22T14:43:03;100385.41;;;41.72;25.06
75972;BME280;64651;47.540;19.088;2023-06-22T14:48:05;100379.72;;;40.83;25.66
75972;BME280;64651;47.540;19.088;2023-06-22T14:53:07;100377.03;;;41.60;24.60
75972;BME280;64651;47.540;19.088;2023-06-22T14:58:10;100370.94;;;41.58;24.72
75972;BME280;64651;47.540;19.088;2023-06-22T15:03:12;100374.19;;;40.61;25.99
75972;BME280;64651;47.540;19.088;2023-06-22T15:08:19;100364.06;;;40.24;26.16
75972;BME280;64651;47.540;19.088;2023-06-22T15:13:21;100360.09;;;39.94;26.98
75972;BME280;64651;47.540;19.088;2023-06-22T15:18:28;100357.44;;;40.41;26.98
75972;BME280;64651;47.540;19.088;2023-06-22T15:23:31;100342.19;;;40.50;27.58
75972;BME280;64651;47.540;19.088;2023-06-22T15:28:33;100336.91;;;41.05;26.23
75972;BME280;64651;47.540;19.088;2023-06-22T15:33:39;100342.03;;;40.44;26.53
75972;BME280;64651;47.540;19.088;2023-06-22T15:38:44;100348.22;;;39.28;28.41
75972;BME280;64651;47.540;19.088;2023-06-22T15:43:47;100342.13;;;38.68;28.86
75972;BME280;64651;47.540;19.088;2023-06-22T15:48:52;100342.91;;;39.17;28.70
75972;BME280;64651;47.540;19.088;2023-06-22T15:53:57;100345.28;;;39.01;28.50
75972;BME280;64651;47.540;19.088;2023-06-22T15:59:00;100341.59;;;37.98;29.54
75972;BME280;64651;47.540;19.088;2023-06-22T16:04:03;100355.69;;;37.62;29.90
75972;BME280;64651;47.540;19.088;2023-06-22T16:09:05;100348.75;;;36.78;32.63
75972;BME280;64651;47.540;19.088;2023-06-22T16:14:09;100339.94;;;36.05;32.97
75972;BME280;64651;47.540;19.088;2023-06-22T16:19:21;100329.28;;;36.06;32.85
75972;BME280;64651;47.540;19.088;2023-06-22T16:24:40;100339.13;;;36.05;32.70
75972;BME280;64651;47.540;19.088;2023-06-22T16:29:44;100334.41;;;35.86;33.35
75972;BME280;64651;47.540;19.088;2023-06-22T16:34:46;100334.88;;;35.39;33.15
75972;BME280;64651;47.540;19.088;2023-06-22T16:39:49;100338.37;;;35.14;34.63
75972;BME280;64651;47.540;19.088;2023-06-22T16:44:51;100333.69;;;34.91;34.34
75972;BME280;64651;47.540;19.088;2023-06-22T16:49:56;100333.78;;;34.88;34.47
75972;BME280;64651;47.540;19.088;2023-06-22T16:55:00;100319.88;;;34.54;35.39
75972;BME280;64651;47.540;19.088;2023-06-22T17:00:06;100316.03;;;34.08;36.59
75972;BME280;64651;47.540;19.088;2023-06-22T17:05:14;100327.34;;;33.76;37.31
75972;BME280;64651;47.540;19.088;2023-06-22T17:10:17;100326.56;;;33.32;39.13
75972;BME280;64651;47.540;19.088;2023-06-22T17:15:22;100324.94;;;32.85;39.41
75972;BME280;64651;47.540;19.088;2023-06-22T17:20:24;100325.63;;;32.42;41.21
75972;BME280;64651;47.540;19.088;2023-06-22T17:25:28;100322.47;;;32.03;41.98
75972;BME280;64651;47.540;19.088;2023-06-22T17:30:36;100322.06;;;31.74;42.54
75972;BME280;64651;47.540;19.088;2023-06-22T17:35:46;100312.63;;;31.43;43.64
75972;BME280;64651;47.540;19.088;2023-06-22T17:40:50;100313.03;;;31.08;44.76
75972;BME280;64651;47.540;19.088;2023-06-22T17:45:57;100312.69;;;30.95;46.26
75972;BME280;64651;47.540;19.088;2023-06-22T17:51:00;100313.62;;;30.81;47.02
75972;BME280;64651;47.540;19.088;2023-06-22T17:56:02;100317.03;;;30.66;47.73
75972;BME280;64651;47.540;19.088;2023-06-22T18:01:05;100301.28;;;30.54;47.79
75972;BME280;64651;47.540;19.088;2023-06-22T18:06:08;100296.09;;;30.38;49.37
75972;BME280;64651;47.540;19.088;2023-06-22T18:11:10;100303.97;;;30.16;50.02
75972;BME280;64651;47.540;19.088;2023-06-22T18:16:13;100292.31;;;29.90;50.68
75972;BME280;64651;47.540;19.088;2023-06-22T18:21:15;100309.84;;;29.67;52.08
75972;BME280;64651;47.540;19.088;2023-06-22T18:26:23;100311.94;;;29.56;52.57
75972;BME280;64651;47.540;19.088;2023-06-22T18:31:26;100318.06;;;29.33;53.64
75972;BME280;64651;47.540;19.088;2023-06-22T18:36:34;100313.62;;;29.11;54.59
75972;BME280;64651;47.540;19.088;2023-06-22T18:41:39;100316.88;;;28.91;55.53
75972;BME280;64651;47.540;19.088;2023-06-22T18:46:52;100328.63;;;28.72;56.50
75972;BME280;64651;47.540;19.088;2023-06-22T18:52:14;100330.19;;;28.45;57.73
75972;BME280;64651;47.540;19.088;2023-06-22T18:57:30;100341.87;;;28.22;58.69
75972;BME280;64651;47.540;19.088;2023-06-22T19:02:45;100351.50;;;28.03;59.63
75972;BME280;64651;47.540;19.088;2023-06-22T19:12:56;100346.59;;;27.86;61.09
75972;BME280;64651;47.540;19.088;2023-06-22T19:18:00;100367.13;;;27.76;60.89
75972;BME280;64651;47.540;19.088;2023-06-22T19:28:30;100367.72;;;28.13;58.36
75972;BME280;64651;47.540;19.088;2023-06-22T19:33:33;100383.41;;;27.97;59.15
75972;BME280;64651;47.540;19.088;2023-06-22T19:38:38;100387.81;;;27.87;59.70
75972;BME280;64651;47.540;19.088;2023-06-22T19:43:42;100379.63;;;27.71;60.13
75972;BME280;64651;47.540;19.088;2023-06-22T19:48:46;100388.78;;;27.51;61.62
75972;BME280;64651;47.540;19.088;2023-06-22T19:53:48;100389.87;;;27.32;62.09
75972;BME280;64651;47.540;19.088;2023-06-22T19:58:51;100382.63;;;27.34;62.03
75972;BME280;64651;47.540;19.088;2023-06-22T20:03:55;100392.22;;;27.19;62.91
75972;BME280;64651;47.540;19.088;2023-06-22T20:08:58;100385.63;;;27.08;63.09
75972;BME280;64651;47.540;19.088;2023-06-22T20:14:04;100393.91;;;26.87;64.68
75972;BME280;64651;47.540;19.088;2023-06-22T20:19:13;100398.69;;;26.79;64.91
75972;BME280;64651;47.540;19.088;2023-06-22T20:24:17;100396.13;;;26.63;64.97
75972;BME280;64651;47.540;19.088;2023-06-22T20:34:26;100403.16;;;26.43;66.11
75972;BME280;64651;47.540;19.088;2023-06-22T20:39:28;100398.69;;;26.39;66.12
75972;BME280;64651;47.540;19.088;2023-06-22T20:44:31;100398.59;;;26.32;67.01
75972;BME280;64651;47.540;19.088;2023-06-22T20:49:33;100398.47;;;26.21;67.65
75972;BME280;64651;47.540;19.088;2023-06-22T20:54:37;100394.88;;;26.24;67.57
75972;BME280;64651;47.540;19.088;2023-06-22T20:59:40;100384.97;;;26.04;68.72
75972;BME280;64651;47.540;19.088;2023-06-22T21:04:42;100374.75;;;25.92;69.12
75972;BME280;64651;47.540;19.088;2023-06-22T21:09:44;100381.88;;;25.86;69.73
75972;BME280;64651;47.540;19.088;2023-06-22T21:14:52;100375.78;;;25.80;70.46
75972;BME280;64651;47.540;19.088;2023-06-22T21:19:54;100385.94;;;25.85;70.50
75972;BME280;64651;47.540;19.088;2023-06-22T21:25:04;100385.59;;;25.90;69.62
75972;BME280;64651;47.540;19.088;2023-06-22T21:30:09;100386.78;;;25.89;70.07
75972;BME280;64651;47.540;19.088;2023-06-22T21:35:12;100385.38;;;25.76;70.76
75972;BME280;64651;47.540;19.088;2023-06-22T21:40:15;100381.88;;;25.86;69.96
75972;BME280;64651;47.540;19.088;2023-06-22T21:45:18;100388.78;;;25.89;69.95
75972;BME280;64651;47.540;19.088;2023-06-22T21:50:20;100380.19;;;25.78;70.80
75972;BME280;64651;47.540;19.088;2023-06-22T21:55:22;100374.72;;;25.62;71.82
75972;BME280;64651;47.540;19.088;2023-06-22T22:00:25;100371.31;;;25.50;72.93
75972;BME280;64651;47.540;19.088;2023-06-22T22:05:27;100366.47;;;25.50;72.98
75972;BME280;64651;47.540;19.088;2023-06-22T22:10:31;100373.88;;;25.58;72.17
75972;BME280;64651;47.540;19.088;2023-06-22T22:15:33;100366.25;;;25.59;72.40
75972;BME280;64651;47.540;19.088;2023-06-22T22:20:35;100357.19;;;25.46;72.93
75972;BME280;64651;47.540;19.088;2023-06-22T22:25:38;100362.00;;;25.45;73.12
75972;BME280;64651;47.540;19.088;2023-06-22T22:30:41;100357.88;;;25.39;73.44
75972;BME280;64651;47.540;19.088;2023-06-22T22:35:44;100352.59;;;25.34;73.86
75972;BME280;64651;47.540;19.088;2023-06-22T22:40:46;100352.91;;;25.29;74.03
75972;BME280;64651;47.540;19.088;2023-06-22T22:45:48;100355.25;;;25.24;74.44
75972;BME280;64651;47.540;19.088;2023-06-22T22:50:51;100355.84;;;25.10;74.94
75972;BME280;64651;47.540;19.088;2023-06-22T22:55:53;100342.91;;;25.05;75.29
75972;BME280;64651;47.540;19.088;2023-06-22T23:00:55;100327.91;;;24.98;75.67
75972;BME280;64651;47.540;19.088;2023-06-22T23:05:58;100308.81;;;24.88;76.13
75972;BME280;64651;47.540;19.088;2023-06-22T23:11:01;100295.44;;;24.81;76.52
75972;BME280;64651;47.540;19.088;2023-06-22T23:16:03;100286.91;;;24.78;76.82
75972;BME280;64651;47.540;19.088;2023-06-22T23:21:05;100288.56;;;24.79;76.67
75972;BME280;64651;47.540;19.088;2023-06-22T23:26:09;100277.13;;;24.68;77.11
75972;BME280;64651;47.540;19.088;2023-06-22T23:31:11;100277.94;;;24.69;77.13
75972;BME280;64651;47.540;19.088;2023-06-22T23:36:14;100271.81;;;24.63;76.92
75972;BME280;64651;47.540;19.088;2023-06-22T23:41:18;100284.97;;;24.55;77.31
75972;BME280;64651;47.540;19.088;2023-06-22T23:46:20;100288.09;;;24.50;77.32
75972;BME280;64651;47.540;19.088;2023-06-22T23:51:23;100282.22;;;24.36;78.32
75972;BME280;64651;47.540;19.088;2023-06-22T23:56:29;100267.72;;;24.34;78.16
